sensor_id;sensor_type;location;lat;lon;timestamp;pressure;altitude;pressure_sealevel;temperature;humidity
75681;BME280;64294;49.176;16.626;2022-12-18T00:01:14;100790.91;;;-5.85;92.22
75681;BME280;64294;49.176;16.626;2022-12-18T00:03:40;100787.00;;;-5.95;91.74
75681;BME280;64294;49.176;16.626;2022-12-18T00:06:05;100793.25;;;-5.98;91.57
75681;BME280;64294;49.176;16.626;2022-12-18T00:08:30;100784.63;;;-6.03;91.34
75681;BME280;64294;49.176;16.626;2022-12-18T00:11:02;100796.72;;;-6.19;90.95
75681;BME280;64294;49.176;16.626;2022-12-18T00:13:27;100797.06;;;-6.34;91.76
75681;BME280;64294;49.176;16.626;2022-12-18T00:15:53;100803.66;;;-6.53;91.92
75681;BME280;64294;49.176;16.626;2022-12-18T00:18:18;100795.03;;;-6.66;91.81
75681;BME280;64294;49.176;16.626;2022-12-18T00:20:43;100805.56;;;-6.68;92.24
75681;BME280;64294;49.176;16.626;2022-12-18T00:23:08;100817.63;;;-6.76;92.54
75681;BME280;64294;49.176;16.626;2022-12-18T00:25:34;100808.63;;;-6.73;92.13
75681;BME280;64294;49.176;16.626;2022-12-18T00:27:59;100812.16;;;-6.76;91.80
75681;BME280;64294;49.176;16.626;2022-12-18T00:30:25;100820.75;;;-6.78;92.05
75681;BME280;64294;49.176;16.626;2022-12-18T00:32:50;100814.34;;;-7.03;91.77
75681;BME280;64294;49.176;16.626;2022-12-18T00:35:15;100820.47;;;-7.24;92.71
75681;BME280;64294;49.176;16.626;2022-12-18T00:37:40;100821.19;;;-7.27;92.64
75681;BME280;64294;49.176;16.626;2022-12-18T00:40:06;100822.34;;;-7.32;92.88
75681;BME280;64294;49.176;16.626;2022-12-18T00:42:31;100829.09;;;-7.15;93.61
75681;BME280;64294;49.176;16.626;2022-12-18T00:45:15;100839.22;;;-7.19;92.63
75681;BME280;64294;49.176;16.626;2022-12-18T00:47:41;100839.22;;;-7.19;92.09
75681;BME280;64294;49.176;16.626;2022-12-18T00:50:06;100841.19;;;-7.16;92.10
75681;BME280;64294;49.176;16.626;2022-12-18T00:52:31;100842.72;;;-7.22;92.31
75681;BME280;64294;49.176;16.626;2022-12-18T00:54:56;100842.75;;;-7.15;91.74
75681;BME280;64294;49.176;16.626;2022-12-18T00:57:22;100848.19;;;-7.22;92.77
75681;BME280;64294;49.176;16.626;2022-12-18T00:59:47;100851.25;;;-7.27;92.46
75681;BME280;64294;49.176;16.626;2022-12-18T01:02:12;100853.72;;;-7.08;93.38
75681;BME280;64294;49.176;16.626;2022-12-18T01:04:37;100859.25;;;-7.04;92.06
75681;BME280;64294;49.176;16.626;2022-12-18T01:07:03;100852.63;;;-6.99;92.52
75681;BME280;64294;49.176;16.626;2022-12-18T01:09:28;100848.81;;;-6.88;91.21
75681;BME280;64294;49.176;16.626;2022-12-18T01:11:53;100850.41;;;-6.80;91.48
75681;BME280;64294;49.176;16.626;2022-12-18T01:14:18;100850.78;;;-6.81;91.38
75681;BME280;64294;49.176;16.626;2022-12-18T01:16:44;100857.88;;;-6.69;91.56
75681;BME280;64294;49.176;16.626;2022-12-18T01:19:09;100862.94;;;-6.72;91.14
75681;BME280;64294;49.176;16.626;2022-12-18T01:21:34;100863.34;;;-6.69;91.10
75681;BME280;64294;49.176;16.626;2022-12-18T01:23:59;100866.88;;;-6.69;90.49
75681;BME280;64294;49.176;16.626;2022-12-18T01:26:25;100867.72;;;-6.58;90.26
75681;BME280;64294;49.176;16.626;2022-12-18T01:28:53;100875.91;;;-6.61;90.50
75681;BME280;64294;49.176;16.626;2022-12-18T01:31:19;100871.59;;;-6.59;90.46
75681;BME280;64294;49.176;16.626;2022-12-18T01:33:45;100871.22;;;-6.61;90.96
75681;BME280;64294;49.176;16.626;2022-12-18T01:36:21;100879.41;;;-6.61;90.77
75681;BME280;64294;49.176;16.626;2022-12-18T01:38:47;100873.56;;;-6.56;90.56
75681;BME280;64294;49.176;16.626;2022-12-18T01:41:12;100888.00;;;-6.66;90.14
75681;BME280;64294;49.176;16.626;2022-12-18T01:46:09;100891.91;;;-6.60;90.58
75681;BME280;64294;49.176;16.626;2022-12-18T01:48:35;100886.44;;;-6.63;90.55
75681;BME280;64294;49.176;16.626;2022-12-18T01:51:00;100882.16;;;-6.61;90.70
75681;BME280;64294;49.176;16.626;2022-12-18T01:53:26;100895.06;;;-6.58;91.14
75681;BME280;64294;49.176;16.626;2022-12-18T01:55:52;100882.13;;;-6.64;90.69
75681;BME280;64294;49.176;16.626;2022-12-18T01:58:19;100885.69;;;-6.57;90.11
75681;BME280;64294;49.176;16.626;2022-12-18T02:00:46;100877.84;;;-6.62;90.24
75681;BME280;64294;49.176;16.626;2022-12-18T02:03:11;100884.13;;;-6.58;90.45
75681;BME280;64294;49.176;16.626;2022-12-18T02:05:44;100893.84;;;-6.64;90.44
75681;BME280;64294;49.176;16.626;2022-12-18T02:08:13;100911.47;;;-6.58;90.91
75681;BME280;64294;49.176;16.626;2022-12-18T02:13:17;100920.13;;;-6.45;90.90
75681;BME280;64294;49.176;16.626;2022-12-18T02:15:57;100912.34;;;-6.39;91.39
75681;BME280;64294;49.176;16.626;2022-12-18T02:18:28;100896.72;;;-6.35;91.27
75681;BME280;64294;49.176;16.626;2022-12-18T02:28:55;100917.56;;;-6.09;91.29
75681;BME280;64294;49.176;16.626;2022-12-18T02:31:23;100912.91;;;-6.05;91.40
75681;BME280;64294;49.176;16.626;2022-12-18T02:33:50;100924.63;;;-6.08;91.28
75681;BME280;64294;49.176;16.626;2022-12-18T02:36:15;100918.75;;;-6.03;91.69
75681;BME280;64294;49.176;16.626;2022-12-18T02:38:41;100921.09;;;-6.09;91.18
75681;BME280;64294;49.176;16.626;2022-12-18T02:41:07;100931.28;;;-6.06;91.50
75681;BME280;64294;49.176;16.626;2022-12-18T02:43:32;100930.09;;;-6.05;91.45
75681;BME280;64294;49.176;16.626;2022-12-18T02:45:58;100927.75;;;-6.06;91.79
75681;BME280;64294;49.176;16.626;2022-12-18T02:48:26;100934.41;;;-6.07;91.96
75681;BME280;64294;49.176;16.626;2022-12-18T02:51:03;100925.41;;;-6.08;91.93
75681;BME280;64294;49.176;16.626;2022-12-18T02:53:40;100925.00;;;-6.06;91.88
75681;BME280;64294;49.176;16.626;2022-12-18T03:01:13;100933.63;;;-6.01;91.75
75681;BME280;64294;49.176;16.626;2022-12-18T03:03:46;100919.94;;;-6.01;91.50
75681;BME280;64294;49.176;16.626;2022-12-18T03:06:15;100924.63;;;-5.98;91.28
75681;BME280;64294;49.176;16.626;2022-12-18T03:08:44;100921.91;;;-5.98;91.29
75681;BME280;64294;49.176;16.626;2022-12-18T03:11:12;100935.97;;;-5.96;91.20
75681;BME280;64294;49.176;16.626;2022-12-18T03:16:08;100934.81;;;-5.88;91.00
75681;BME280;64294;49.176;16.626;2022-12-18T03:18:38;100946.56;;;-5.87;91.03
75681;BME280;64294;49.176;16.626;2022-12-18T03:21:06;100934.03;;;-5.88;90.51
75681;BME280;64294;49.176;16.626;2022-12-18T03:23:33;100945.78;;;-5.84;90.51
75681;BME280;64294;49.176;16.626;2022-12-18T03:26:01;100937.19;;;-5.83;90.40
75681;BME280;64294;49.176;16.626;2022-12-18T03:28:28;100944.63;;;-5.83;90.80
75681;BME280;64294;49.176;16.626;2022-12-18T03:30:56;100947.34;;;-5.83;90.40
75681;BME280;64294;49.176;16.626;2022-12-18T03:33:26;100945.00;;;-5.88;90.66
75681;BME280;64294;49.176;16.626;2022-12-18T03:35:53;100954.38;;;-5.86;90.26
75681;BME280;64294;49.176;16.626;2022-12-18T03:38:18;100961.44;;;-5.85;90.27
75681;BME280;64294;49.176;16.626;2022-12-18T03:40:46;100963.00;;;-5.80;90.51
75681;BME280;64294;49.176;16.626;2022-12-18T03:46:02;100961.44;;;-5.78;90.31
75681;BME280;64294;49.176;16.626;2022-12-18T03:48:31;100969.69;;;-5.74;90.44
75681;BME280;64294;49.176;16.626;2022-12-18T03:51:08;100959.91;;;-5.75;89.89
75681;BME280;64294;49.176;16.626;2022-12-18T03:53:37;100966.56;;;-5.69;89.91
75681;BME280;64294;49.176;16.626;2022-12-18T03:56:06;100965.00;;;-5.66;90.43
75681;BME280;64294;49.176;16.626;2022-12-18T03:58:33;100972.84;;;-5.65;89.52
75681;BME280;64294;49.176;16.626;2022-12-18T04:01:01;100981.84;;;-5.61;89.93
75681;BME280;64294;49.176;16.626;2022-12-18T04:03:28;100967.00;;;-5.56;89.67
75681;BME280;64294;49.176;16.626;2022-12-18T04:05:54;100969.75;;;-5.56;89.64
75681;BME280;64294;49.176;16.626;2022-12-18T04:08:20;100967.41;;;-5.58;89.90
75681;BME280;64294;49.176;16.626;2022-12-18T04:10:46;100967.41;;;-5.58;90.02
75681;BME280;64294;49.176;16.626;2022-12-18T04:13:11;100976.03;;;-5.52;89.90
75681;BME280;64294;49.176;16.626;2022-12-18T04:15:36;100973.66;;;-5.54;90.02
75681;BME280;64294;49.176;16.626;2022-12-18T04:18:02;100974.84;;;-5.55;89.96
75681;BME280;64294;49.176;16.626;2022-12-18T04:20:28;100985.03;;;-5.52;89.61
75681;BME280;64294;49.176;16.626;2022-12-18T04:22:53;100985.41;;;-5.50;88.98
75681;BME280;64294;49.176;16.626;2022-12-18T04:25:19;100990.09;;;-5.50;89.11
75681;BME280;64294;49.176;16.626;2022-12-18T04:27:44;100990.88;;;-5.50;89.04
75681;BME280;64294;49.176;16.626;2022-12-18T04:30:09;100988.16;;;-5.46;89.34
75681;BME280;64294;49.176;16.626;2022-12-18T04:32:35;100995.19;;;-5.45;89.06
75681;BME280;64294;49.176;16.626;2022-12-18T04:35:00;100988.53;;;-5.44;88.92
75681;BME280;64294;49.176;16.626;2022-12-18T04:37:25;100987.75;;;-5.48;88.67
75681;BME280;64294;49.176;16.626;2022-12-18T04:39:50;100989.31;;;-5.51;88.78
75681;BME280;64294;49.176;16.626;2022-12-18T04:42:15;100993.25;;;-5.48;88.76
75681;BME280;64294;49.176;16.626;2022-12-18T04:44:41;100994.41;;;-5.49;88.25
75681;BME280;64294;49.176;16.626;2022-12-18T04:47:06;100987.78;;;-5.41;88.83
75681;BME280;64294;49.176;16.626;2022-12-18T04:49:32;100992.47;;;-5.45;88.73
75681;BME280;64294;49.176;16.626;2022-12-18T04:51:57;100994.81;;;-5.43;88.66
75681;BME280;64294;49.176;16.626;2022-12-18T04:54:23;100997.94;;;-5.49;88.57
75681;BME280;64294;49.176;16.626;2022-12-18T04:56:48;100991.69;;;-5.49;88.32
75681;BME280;64294;49.176;16.626;2022-12-18T04:59:13;101006.94;;;-5.52;88.80
75681;BME280;64294;49.176;16.626;2022-12-18T05:01:38;101012.41;;;-5.48;88.75
75681;BME280;64294;49.176;16.626;2022-12-18T05:04:03;101007.72;;;-5.47;88.33
75681;BME280;64294;49.176;16.626;2022-12-18T05:06:29;101013.59;;;-5.49;88.67
75681;BME280;64294;49.176;16.626;2022-12-18T05:08:54;101023.78;;;-5.50;88.71
75681;BME280;64294;49.176;16.626;2022-12-18T05:11:19;101017.91;;;-5.44;89.18
75681;BME280;64294;49.176;16.626;2022-12-18T05:13:44;101027.31;;;-5.42;88.96
75681;BME280;64294;49.176;16.626;2022-12-18T05:16:10;101019.47;;;-5.47;88.89
75681;BME280;64294;49.176;16.626;2022-12-18T05:18:35;101023.78;;;-5.42;88.74
75681;BME280;64294;49.176;16.626;2022-12-18T05:21:01;101028.13;;;-5.38;89.03
75681;BME280;64294;49.176;16.626;2022-12-18T05:23:26;101035.16;;;-5.37;88.40
75681;BME280;64294;49.176;16.626;2022-12-18T05:25:55;101029.31;;;-5.32;88.81
75681;BME280;64294;49.176;16.626;2022-12-18T05:28:20;101034.00;;;-5.36;89.00
75681;BME280;64294;49.176;16.626;2022-12-18T05:30:49;101035.19;;;-5.30;88.97
75681;BME280;64294;49.176;16.626;2022-12-18T05:33:15;101037.91;;;-5.26;89.03
75681;BME280;64294;49.176;16.626;2022-12-18T05:35:40;101050.44;;;-5.29;89.04
75681;BME280;64294;49.176;16.626;2022-12-18T05:38:06;101048.88;;;-5.23;89.00
75681;BME280;64294;49.176;16.626;2022-12-18T05:40:31;101058.31;;;-5.20;88.67
75681;BME280;64294;49.176;16.626;2022-12-18T05:42:56;101056.72;;;-5.25;88.82
75681;BME280;64294;49.176;16.626;2022-12-18T05:45:21;101071.19;;;-5.28;88.28
75681;BME280;64294;49.176;16.626;2022-12-18T05:47:46;101059.84;;;-5.23;88.64
75681;BME280;64294;49.176;16.626;2022-12-18T05:50:11;101070.06;;;-5.20;88.49
75681;BME280;64294;49.176;16.626;2022-12-18T05:52:37;101066.91;;;-5.22;88.20
75681;BME280;64294;49.176;16.626;2022-12-18T05:55:02;101066.13;;;-5.26;88.77
75681;BME280;64294;49.176;16.626;2022-12-18T05:57:27;101068.84;;;-5.26;88.48
75681;BME280;64294;49.176;16.626;2022-12-18T05:59:53;101077.91;;;-5.18;88.55
75681;BME280;64294;49.176;16.626;2022-12-18T06:02:18;101077.88;;;-5.22;88.00
75681;BME280;64294;49.176;16.626;2022-12-18T06:04:45;101078.28;;;-5.20;88.37
75681;BME280;64294;49.176;16.626;2022-12-18T06:07:11;101082.22;;;-5.17;88.56
75681;BME280;64294;49.176;16.626;2022-12-18T06:09:36;101090.81;;;-5.19;88.78
75681;BME280;64294;49.176;16.626;2022-12-18T06:12:01;101088.47;;;-5.20;89.02
75681;BME280;64294;49.176;16.626;2022-12-18T06:14:26;101096.69;;;-5.16;89.02
75681;BME280;64294;49.176;16.626;2022-12-18T06:16:52;101100.63;;;-5.14;88.92
75681;BME280;64294;49.176;16.626;2022-12-18T06:19:17;101106.88;;;-5.13;88.72
75681;BME280;64294;49.176;16.626;2022-12-18T06:21:42;101113.56;;;-5.07;88.89
75681;BME280;64294;49.176;16.626;2022-12-18T06:24:07;101115.91;;;-5.09;88.55
75681;BME280;64294;49.176;16.626;2022-12-18T06:26:33;101105.72;;;-5.05;88.79
75681;BME280;64294;49.176;16.626;2022-12-18T06:28:58;101117.47;;;-5.08;88.38
75681;BME280;64294;49.176;16.626;2022-12-18T06:31:23;101115.13;;;-5.10;88.81
75681;BME280;64294;49.176;16.626;2022-12-18T06:33:49;101121.44;;;-4.88;87.32
75681;BME280;64294;49.176;16.626;2022-12-18T06:36:14;101123.00;;;-4.94;87.61
75681;BME280;64294;49.176;16.626;2022-12-18T06:38:40;101125.75;;;-4.98;87.79
75681;BME280;64294;49.176;16.626;2022-12-18T06:41:07;101123.00;;;-5.01;87.33
75681;BME280;64294;49.176;16.626;2022-12-18T06:43:32;101132.34;;;-5.02;87.35
75681;BME280;64294;49.176;16.626;2022-12-18T06:45:58;101132.00;;;-4.97;87.13
75681;BME280;64294;49.176;16.626;2022-12-18T06:48:23;101129.66;;;-4.95;87.14
75681;BME280;64294;49.176;16.626;2022-12-18T06:50:49;101129.66;;;-4.95;87.28
75681;BME280;64294;49.176;16.626;2022-12-18T06:53:14;101135.16;;;-4.92;86.59
75681;BME280;64294;49.176;16.626;2022-12-18T06:55:39;101142.97;;;-4.94;86.74
75681;BME280;64294;49.176;16.626;2022-12-18T06:58:04;101143.75;;;-4.97;86.54
75681;BME280;64294;49.176;16.626;2022-12-18T07:00:30;101139.44;;;-4.98;86.50
75681;BME280;64294;49.176;16.626;2022-12-18T07:02:55;101141.81;;;-4.96;86.61
75681;BME280;64294;49.176;16.626;2022-12-18T07:05:20;101161.78;;;-4.92;86.03
75681;BME280;64294;49.176;16.626;2022-12-18T07:07:45;101153.94;;;-4.90;86.43
75681;BME280;64294;49.176;16.626;2022-12-18T07:10:11;101150.03;;;-4.89;86.74
75681;BME280;64294;49.176;16.626;2022-12-18T07:12:36;101146.91;;;-4.88;85.89
75681;BME280;64294;49.176;16.626;2022-12-18T07:15:01;101154.75;;;-4.90;86.13
75681;BME280;64294;49.176;16.626;2022-12-18T07:17:27;101152.38;;;-4.91;86.11
75681;BME280;64294;49.176;16.626;2022-12-18T07:19:52;101164.91;;;-4.90;85.74
75681;BME280;64294;49.176;16.626;2022-12-18T07:22:17;101176.66;;;-4.93;85.97
75681;BME280;64294;49.176;16.626;2022-12-18T07:24:42;101178.25;;;-4.85;85.81
75681;BME280;64294;49.176;16.626;2022-12-18T07:27:08;101176.72;;;-4.82;85.69
75681;BME280;64294;49.176;16.626;2022-12-18T07:30:56;101176.72;;;-4.75;85.25
75681;BME280;64294;49.176;16.626;2022-12-18T07:33:22;101170.84;;;-4.77;85.21
75681;BME280;64294;49.176;16.626;2022-12-18T07:35:47;101181.44;;;-4.69;85.95
75681;BME280;64294;49.176;16.626;2022-12-18T07:38:12;101179.09;;;-4.67;85.16
75681;BME280;64294;49.176;16.626;2022-12-18T07:40:37;101183.41;;;-4.66;85.24
75681;BME280;64294;49.176;16.626;2022-12-18T07:43:03;101185.78;;;-4.61;84.59
75681;BME280;64294;49.176;16.626;2022-12-18T07:45:30;101189.72;;;-4.58;85.02
75681;BME280;64294;49.176;16.626;2022-12-18T07:47:55;101197.56;;;-4.57;84.70
75681;BME280;64294;49.176;16.626;2022-12-18T07:50:20;101189.34;;;-4.46;84.49
75681;BME280;64294;49.176;16.626;2022-12-18T07:52:46;101203.06;;;-4.42;83.63
75681;BME280;64294;49.176;16.626;2022-12-18T07:55:11;101196.81;;;-4.39;83.80
75681;BME280;64294;49.176;16.626;2022-12-18T07:57:37;101207.41;;;-4.31;83.98
75681;BME280;64294;49.176;16.626;2022-12-18T08:00:03;101202.72;;;-4.23;83.50
75681;BME280;64294;49.176;16.626;2022-12-18T08:02:31;101201.53;;;-4.18;83.17
75681;BME280;64294;49.176;16.626;2022-12-18T08:04:57;101211.75;;;-4.19;82.69
75681;BME280;64294;49.176;16.626;2022-12-18T08:07:23;101212.13;;;-4.17;82.73
75681;BME280;64294;49.176;16.626;2022-12-18T08:09:48;101196.44;;;-4.16;83.02
75681;BME280;64294;49.176;16.626;2022-12-18T08:12:13;101201.16;;;-4.06;84.21
75681;BME280;64294;49.176;16.626;2022-12-18T08:14:38;101201.56;;;-3.90;82.85
75681;BME280;64294;49.176;16.626;2022-12-18T08:17:04;101206.66;;;-3.81;82.13
75681;BME280;64294;49.176;16.626;2022-12-18T08:19:29;101223.53;;;-3.86;81.97
75681;BME280;64294;49.176;16.626;2022-12-18T08:21:55;101216.06;;;-3.79;82.31
75681;BME280;64294;49.176;16.626;2022-12-18T08:24:20;101218.41;;;-3.74;82.04
75681;BME280;64294;49.176;16.626;2022-12-18T08:26:45;101220.00;;;-3.69;81.65
75681;BME280;64294;49.176;16.626;2022-12-18T08:29:11;101210.94;;;-3.73;81.30
75681;BME280;64294;49.176;16.626;2022-12-18T08:31:37;101223.88;;;-3.56;80.90
75681;BME280;64294;49.176;16.626;2022-12-18T08:34:02;101226.25;;;-3.47;80.80
75681;BME280;64294;49.176;16.626;2022-12-18T08:36:27;101232.53;;;-3.47;81.42
75681;BME280;64294;49.176;16.626;2022-12-18T08:38:53;101237.25;;;-3.51;80.82
75681;BME280;64294;49.176;16.626;2022-12-18T08:41:19;101248.63;;;-3.49;81.33
75681;BME280;64294;49.176;16.626;2022-12-18T08:43:45;101245.88;;;-3.42;80.85
75681;BME280;64294;49.176;16.626;2022-12-18T08:46:34;101245.06;;;-3.28;80.56
75681;BME280;64294;49.176;16.626;2022-12-18T08:49:00;101245.44;;;-3.22;79.92
75681;BME280;64294;49.176;16.626;2022-12-18T08:51:25;101247.81;;;-3.28;80.74
75681;BME280;64294;49.176;16.626;2022-12-18T08:53:50;101251.34;;;-3.24;80.85
75681;BME280;64294;49.176;16.626;2022-12-18T08:56:16;101248.97;;;-3.11;80.26
75681;BME280;64294;49.176;16.626;2022-12-18T08:58:42;101252.91;;;-3.12;80.65
75681;BME280;64294;49.176;16.626;2022-12-18T09:01:09;101263.09;;;-3.16;79.88
75681;BME280;64294;49.176;16.626;2022-12-18T09:03:35;101259.97;;;-3.11;79.99
75681;BME280;64294;49.176;16.626;2022-12-18T09:06:00;101261.13;;;-3.05;79.93
75681;BME280;64294;49.176;16.626;2022-12-18T09:08:27;101259.13;;;-2.94;79.44
75681;BME280;64294;49.176;16.626;2022-12-18T09:10:52;101254.44;;;-2.97;78.97
75681;BME280;64294;49.176;16.626;2022-12-18T09:13:18;101256.78;;;-2.92;79.59
75681;BME280;64294;49.176;16.626;2022-12-18T09:15:46;101261.47;;;-2.89;78.53
75681;BME280;64294;49.176;16.626;2022-12-18T09:18:13;101254.28;;;-2.65;77.55
75681;BME280;64294;49.176;16.626;2022-12-18T09:20:38;101254.75;;;-2.77;78.47
75681;BME280;64294;49.176;16.626;2022-12-18T09:23:04;101247.22;;;-2.62;78.02
75681;BME280;64294;49.176;16.626;2022-12-18T09:25:31;101257.34;;;-2.45;78.09
75681;BME280;64294;49.176;16.626;2022-12-18T09:28:19;101247.13;;;-2.45;78.48
75681;BME280;64294;49.176;16.626;2022-12-18T09:30:48;101247.53;;;-2.46;77.26
75681;BME280;64294;49.176;16.626;2022-12-18T09:33:14;101256.22;;;-2.55;77.19
75681;BME280;64294;49.176;16.626;2022-12-18T09:35:41;101249.91;;;-2.52;77.49
75681;BME280;64294;49.176;16.626;2022-12-18T09:38:07;101246.91;;;-2.86;78.88
75681;BME280;64294;49.176;16.626;2022-12-18T09:40:42;101242.97;;;-2.85;79.81
75681;BME280;64294;49.176;16.626;2022-12-18T09:43:47;101251.53;;;-2.61;77.42
75681;BME280;64294;49.176;16.626;2022-12-18T09:46:20;101248.06;;;-2.76;77.11
75681;BME280;64294;49.176;16.626;2022-12-18T09:48:52;101252.34;;;-2.68;77.50
75681;BME280;64294;49.176;16.626;2022-12-18T09:51:23;101257.03;;;-2.61;77.51
75681;BME280;64294;49.176;16.626;2022-12-18T09:54:03;101244.59;;;-2.91;77.44
75681;BME280;64294;49.176;16.626;2022-12-18T09:56:35;101249.69;;;-2.93;78.36
75681;BME280;64294;49.176;16.626;2022-12-18T09:59:03;101239.50;;;-2.96;78.45
75681;BME280;64294;49.176;16.626;2022-12-18T10:01:30;101240.22;;;-2.81;78.60
75681;BME280;64294;49.176;16.626;2022-12-18T10:03:56;101230.84;;;-2.98;78.19
75681;BME280;64294;49.176;16.626;2022-12-18T10:06:36;101232.72;;;-2.73;78.39
75681;BME280;64294;49.176;16.626;2022-12-18T10:09:28;101238.22;;;-2.73;77.36
75681;BME280;64294;49.176;16.626;2022-12-18T10:12:12;101226.41;;;-2.70;79.16
75681;BME280;64294;49.176;16.626;2022-12-18T10:14:53;101220.47;;;-2.58;78.77
75681;BME280;64294;49.176;16.626;2022-12-18T10:17:45;101228.13;;;-2.25;76.87
75681;BME280;64294;49.176;16.626;2022-12-18T10:20:29;101211.06;;;-2.68;77.22
75681;BME280;64294;49.176;16.626;2022-12-18T10:23:02;101212.53;;;-2.49;76.97
75681;BME280;64294;49.176;16.626;2022-12-18T10:28:26;101208.66;;;-2.62;77.05
75681;BME280;64294;49.176;16.626;2022-12-18T10:30:52;101217.72;;;-2.58;76.70
75681;BME280;64294;49.176;16.626;2022-12-18T10:33:23;101207.22;;;-2.88;76.88
75681;BME280;64294;49.176;16.626;2022-12-18T10:35:52;101208.66;;;-2.55;77.15
75681;BME280;64294;49.176;16.626;2022-12-18T10:41:22;101208.91;;;-2.32;76.35
75681;BME280;64294;49.176;16.626;2022-12-18T10:44:20;101202.31;;;-2.49;76.83
75681;BME280;64294;49.176;16.626;2022-12-18T10:46:48;101213.22;;;-2.31;76.11
75681;BME280;64294;49.176;16.626;2022-12-18T10:49:23;101211.81;;;-2.57;76.88
75681;BME280;64294;49.176;16.626;2022-12-18T10:51:51;101207.69;;;-2.27;75.30
75681;BME280;64294;49.176;16.626;2022-12-18T10:54:30;101210.81;;;-2.22;75.55
75681;BME280;64294;49.176;16.626;2022-12-18T10:57:15;101210.38;;;-2.90;77.56
75681;BME280;64294;49.176;16.626;2022-12-18T10:59:52;101213.03;;;-2.68;76.94
75681;BME280;64294;49.176;16.626;2022-12-18T11:02:38;101216.34;;;-3.09;77.47
75681;BME280;64294;49.176;16.626;2022-12-18T11:05:26;101208.66;;;-2.62;78.26
75681;BME280;64294;49.176;16.626;2022-12-18T11:07:52;101217.88;;;-2.97;77.33
75681;BME280;64294;49.176;16.626;2022-12-18T11:10:22;101214.16;;;-2.62;76.92
75681;BME280;64294;49.176;16.626;2022-12-18T11:12:47;101214.88;;;-2.44;76.76
75681;BME280;64294;49.176;16.626;2022-12-18T11:15:28;101216.06;;;-2.41;77.15
75681;BME280;64294;49.176;16.626;2022-12-18T11:17:54;101214.53;;;-2.53;75.95
75681;BME280;64294;49.176;16.626;2022-12-18T11:20:34;101211.03;;;-2.61;76.02
75681;BME280;64294;49.176;16.626;2022-12-18T11:23:03;101217.53;;;-3.17;77.33
75681;BME280;64294;49.176;16.626;2022-12-18T11:25:30;101215.22;;;-3.26;78.04
75681;BME280;64294;49.176;16.626;2022-12-18T11:28:01;101215.94;;;-3.04;78.01
75681;BME280;64294;49.176;16.626;2022-12-18T11:30:30;101228.47;;;-2.92;77.14
75681;BME280;64294;49.176;16.626;2022-12-18T11:35:59;101231.47;;;-2.55;77.11
75681;BME280;64294;49.176;16.626;2022-12-18T11:38:32;101224.03;;;-2.68;76.18
75681;BME280;64294;49.176;16.626;2022-12-18T11:41:04;101211.44;;;-2.59;76.76
75681;BME280;64294;49.176;16.626;2022-12-18T11:43:47;101220.75;;;-2.38;75.54
75681;BME280;64294;49.176;16.626;2022-12-18T11:46:23;101211.72;;;-2.46;75.02
75681;BME280;64294;49.176;16.626;2022-12-18T11:48:54;101210.69;;;-2.07;75.57
75681;BME280;64294;49.176;16.626;2022-12-18T11:51:28;101218.47;;;-1.95;76.11
75681;BME280;64294;49.176;16.626;2022-12-18T11:53:55;101206.47;;;-1.71;74.80
75681;BME280;64294;49.176;16.626;2022-12-18T12:01:45;101200.00;;;-1.54;73.35
75681;BME280;64294;49.176;16.626;2022-12-18T12:17:51;101201.16;;;-1.51;73.34
75681;BME280;64294;49.176;16.626;2022-12-18T12:38:55;101186.16;;;-1.91;75.06
75681;BME280;64294;49.176;16.626;2022-12-18T12:41:25;101197.72;;;-2.10;74.83
75681;BME280;64294;49.176;16.626;2022-12-18T12:44:24;101196.88;;;-2.63;75.56
75681;BME280;64294;49.176;16.626;2022-12-18T12:46:52;101200.75;;;-2.50;75.99
75681;BME280;64294;49.176;16.626;2022-12-18T12:49:25;101202.50;;;-2.84;75.98
75681;BME280;64294;49.176;16.626;2022-12-18T12:52:05;101196.25;;;-2.92;76.85
75681;BME280;64294;49.176;16.626;2022-12-18T12:54:32;101190.69;;;-2.81;77.26
75681;BME280;64294;49.176;16.626;2022-12-18T12:57:37;101181.78;;;-3.14;77.89
75681;BME280;64294;49.176;16.626;2022-12-18T13:05:21;101188.22;;;-3.84;79.38
75681;BME280;64294;49.176;16.626;2022-12-18T13:07:55;101192.13;;;-3.75;79.25
75681;BME280;64294;49.176;16.626;2022-12-18T13:10:45;101202.72;;;-3.62;80.27
75681;BME280;64294;49.176;16.626;2022-12-18T13:13:12;101199.59;;;-3.79;79.26
75681;BME280;64294;49.176;16.626;2022-12-18T13:15:46;101201.16;;;-3.88;79.68
75681;BME280;64294;49.176;16.626;2022-12-18T13:18:13;101200.78;;;-4.01;80.46
75681;BME280;64294;49.176;16.626;2022-12-18T13:20:42;101198.81;;;-3.83;80.09
75681;BME280;64294;49.176;16.626;2022-12-18T13:33:43;101223.06;;;-4.38;81.32
75681;BME280;64294;49.176;16.626;2022-12-18T13:38:47;101234.78;;;-4.55;81.43
75681;BME280;64294;49.176;16.626;2022-12-18T13:41:26;101240.50;;;-5.00;82.13
75681;BME280;64294;49.176;16.626;2022-12-18T13:43:54;101247.19;;;-4.97;83.08
75681;BME280;64294;49.176;16.626;2022-12-18T13:46:29;101241.69;;;-4.97;82.94
75681;BME280;64294;49.176;16.626;2022-12-18T13:49:00;101246.78;;;-4.96;83.05
75681;BME280;64294;49.176;16.626;2022-12-18T13:51:27;101250.22;;;-5.16;83.99
75681;BME280;64294;49.176;16.626;2022-12-18T13:54:00;101258.94;;;-4.90;83.48
75681;BME280;64294;49.176;16.626;2022-12-18T13:56:33;101252.75;;;-4.79;82.75
75681;BME280;64294;49.176;16.626;2022-12-18T14:01:33;101259.59;;;-5.18;83.35
75681;BME280;64294;49.176;16.626;2022-12-18T14:04:16;101245.94;;;-5.07;83.49
75681;BME280;64294;49.176;16.626;2022-12-18T14:06:43;101247.13;;;-5.04;84.09
75681;BME280;64294;49.176;16.626;2022-12-18T14:09:13;101251.25;;;-5.35;84.51
75681;BME280;64294;49.176;16.626;2022-12-18T14:11:39;101251.69;;;-5.26;84.88
75681;BME280;64294;49.176;16.626;2022-12-18T14:14:04;101272.75;;;-5.41;84.41
75681;BME280;64294;49.176;16.626;2022-12-18T14:16:32;101287.22;;;-5.44;85.42
75681;BME280;64294;49.176;16.626;2022-12-18T14:18:59;101280.94;;;-5.44;85.52